sensor_id;sensor_type;location;lat;lon;timestamp;P1;durP1;ratioP1;P2;durP2;ratioP2
71464;SDS011;59274;49.874;9.154;2022-07-10T00:02:15;9.40;;;5.50;;
71464;SDS011;59274;49.874;9.154;2022-07-10T00:04:40;8.48;;;5.30;;
71464;SDS011;59274;49.874;9.154;2022-07-10T00:07:06;9.73;;;5.63;;
71464;SDS011;59274;49.874;9.154;2022-07-10T00:09:32;9.40;;;5.43;;
71464;SDS011;59274;49.874;9.154;2022-07-10T00:11:57;9.23;;;5.53;;
71464;SDS011;59274;49.874;9.154;2022-07-10T00:14:23;8.67;;;5.40;;
71464;SDS011;59274;49.874;9.154;2022-07-10T00:16:49;9.63;;;5.63;;
71464;SDS011;59274;49.874;9.154;2022-07-10T00:19:15;9.03;;;5.83;;
71464;SDS011;59274;49.874;9.154;2022-07-10T00:21:40;8.70;;;5.60;;
71464;SDS011;59274;49.874;9.154;2022-07-10T00:24:06;8.07;;;5.43;;
71464;SDS011;59274;49.874;9.154;2022-07-10T00:26:32;8.07;;;4.80;;
71464;SDS011;59274;49.874;9.154;2022-07-10T00:28:57;9.27;;;5.00;;
71464;SDS011;59274;49.874;9.154;2022-07-10T00:31:23;10.32;;;5.22;;
71464;SDS011;59274;49.874;9.154;2022-07-10T00:33:49;9.83;;;5.70;;
71464;SDS011;59274;49.874;9.154;2022-07-10T00:36:16;8.73;;;5.50;;
71464;SDS011;59274;49.874;9.154;2022-07-10T00:38:41;11.18;;;5.65;;
71464;SDS011;59274;49.874;9.154;2022-07-10T00:41:07;8.80;;;5.95;;
71464;SDS011;59274;49.874;9.154;2022-07-10T00:46:25;9.35;;;5.93;;
71464;SDS011;59274;49.874;9.154;2022-07-10T00:48:52;9.85;;;6.30;;
71464;SDS011;59274;49.874;9.154;2022-07-10T00:51:18;9.75;;;6.03;;
71464;SDS011;59274;49.874;9.154;2022-07-10T00:53:49;9.73;;;6.75;;
71464;SDS011;59274;49.874;9.154;2022-07-10T00:56:16;13.00;;;6.60;;
71464;SDS011;59274;49.874;9.154;2022-07-10T00:58:45;13.73;;;7.35;;
71464;SDS011;59274;49.874;9.154;2022-07-10T01:01:11;12.27;;;6.68;;
71464;SDS011;59274;49.874;9.154;2022-07-10T01:03:37;10.10;;;6.65;;
71464;SDS011;59274;49.874;9.154;2022-07-10T01:06:03;9.60;;;6.10;;
71464;SDS011;59274;49.874;9.154;2022-07-10T01:08:29;11.15;;;6.05;;
71464;SDS011;59274;49.874;9.154;2022-07-10T01:10:55;9.82;;;6.03;;
71464;SDS011;59274;49.874;9.154;2022-07-10T01:13:21;11.23;;;5.57;;
71464;SDS011;59274;49.874;9.154;2022-07-10T01:15:47;9.65;;;5.57;;
71464;SDS011;59274;49.874;9.154;2022-07-10T01:18:13;8.50;;;5.50;;
71464;SDS011;59274;49.874;9.154;2022-07-10T01:20:39;9.70;;;6.03;;
71464;SDS011;59274;49.874;9.154;2022-07-10T01:23:05;10.47;;;6.30;;
71464;SDS011;59274;49.874;9.154;2022-07-10T01:25:31;9.73;;;6.22;;
71464;SDS011;59274;49.874;9.154;2022-07-10T01:27:57;9.88;;;6.10;;
71464;SDS011;59274;49.874;9.154;2022-07-10T01:30:24;10.27;;;6.10;;
71464;SDS011;59274;49.874;9.154;2022-07-10T01:32:50;10.27;;;6.35;;
71464;SDS011;59274;49.874;9.154;2022-07-10T01:35:17;10.27;;;6.32;;
71464;SDS011;59274;49.874;9.154;2022-07-10T01:37:43;11.10;;;6.68;;
71464;SDS011;59274;49.874;9.154;2022-07-10T01:40:09;10.55;;;6.78;;
71464;SDS011;59274;49.874;9.154;2022-07-10T01:42:35;9.75;;;6.90;;
71464;SDS011;59274;49.874;9.154;2022-07-10T01:45:03;10.98;;;6.75;;
71464;SDS011;59274;49.874;9.154;2022-07-10T01:47:30;11.50;;;6.63;;
71464;SDS011;59274;49.874;9.154;2022-07-10T01:49:55;11.67;;;6.97;;
71464;SDS011;59274;49.874;9.154;2022-07-10T01:52:21;11.13;;;7.30;;
71464;SDS011;59274;49.874;9.154;2022-07-10T01:54:47;10.70;;;6.80;;
71464;SDS011;59274;49.874;9.154;2022-07-10T01:57:13;10.10;;;6.53;;
71464;SDS011;59274;49.874;9.154;2022-07-10T01:59:40;10.50;;;6.68;;
71464;SDS011;59274;49.874;9.154;2022-07-10T02:02:06;10.30;;;7.03;;
71464;SDS011;59274;49.874;9.154;2022-07-10T02:04:32;11.98;;;7.57;;
71464;SDS011;59274;49.874;9.154;2022-07-10T02:07:07;12.00;;;8.25;;
71464;SDS011;59274;49.874;9.154;2022-07-10T02:09:37;13.05;;;7.68;;
71464;SDS011;59274;49.874;9.154;2022-07-10T02:12:06;12.82;;;7.85;;
71464;SDS011;59274;49.874;9.154;2022-07-10T02:14:34;16.43;;;9.87;;
71464;SDS011;59274;49.874;9.154;2022-07-10T02:17:00;14.40;;;8.95;;
71464;SDS011;59274;49.874;9.154;2022-07-10T02:19:26;14.82;;;9.50;;
71464;SDS011;59274;49.874;9.154;2022-07-10T02:21:52;15.50;;;9.50;;
71464;SDS011;59274;49.874;9.154;2022-07-10T02:24:18;14.00;;;8.63;;
71464;SDS011;59274;49.874;9.154;2022-07-10T02:26:44;14.43;;;8.80;;
71464;SDS011;59274;49.874;9.154;2022-07-10T02:29:09;13.17;;;8.43;;
71464;SDS011;59274;49.874;9.154;2022-07-10T02:31:35;15.55;;;9.13;;
71464;SDS011;59274;49.874;9.154;2022-07-10T02:34:08;12.20;;;8.15;;
71464;SDS011;59274;49.874;9.154;2022-07-10T02:36:37;12.88;;;8.10;;
71464;SDS011;59274;49.874;9.154;2022-07-10T02:39:06;11.33;;;7.23;;
71464;SDS011;59274;49.874;9.154;2022-07-10T02:41:33;12.30;;;6.97;;
71464;SDS011;59274;49.874;9.154;2022-07-10T02:44:00;11.70;;;5.93;;
71464;SDS011;59274;49.874;9.154;2022-07-10T02:46:26;10.70;;;5.50;;
71464;SDS011;59274;49.874;9.154;2022-07-10T02:48:51;9.67;;;5.00;;
71464;SDS011;59274;49.874;9.154;2022-07-10T02:51:17;9.15;;;4.68;;
71464;SDS011;59274;49.874;9.154;2022-07-10T02:53:42;9.87;;;5.37;;
71464;SDS011;59274;49.874;9.154;2022-07-10T02:56:08;8.60;;;4.40;;
71464;SDS011;59274;49.874;9.154;2022-07-10T02:58:34;10.48;;;3.38;;
71464;SDS011;59274;49.874;9.154;2022-07-10T03:00:59;8.15;;;3.97;;
71464;SDS011;59274;49.874;9.154;2022-07-10T03:03:25;7.53;;;3.60;;
71464;SDS011;59274;49.874;9.154;2022-07-10T03:05:51;11.40;;;4.10;;
71464;SDS011;59274;49.874;9.154;2022-07-10T03:08:17;9.25;;;3.92;;
71464;SDS011;59274;49.874;9.154;2022-07-10T03:10:44;8.30;;;3.50;;
71464;SDS011;59274;49.874;9.154;2022-07-10T03:13:10;8.77;;;4.10;;
71464;SDS011;59274;49.874;9.154;2022-07-10T03:15:35;7.87;;;4.30;;
71464;SDS011;59274;49.874;9.154;2022-07-10T03:18:01;9.90;;;4.20;;
71464;SDS011;59274;49.874;9.154;2022-07-10T03:20:27;8.73;;;4.32;;
71464;SDS011;59274;49.874;9.154;2022-07-10T03:22:52;9.68;;;4.38;;
71464;SDS011;59274;49.874;9.154;2022-07-10T03:25:18;8.52;;;4.22;;
71464;SDS011;59274;49.874;9.154;2022-07-10T03:27:44;7.88;;;4.45;;
71464;SDS011;59274;49.874;9.154;2022-07-10T03:30:09;7.93;;;3.97;;
71464;SDS011;59274;49.874;9.154;2022-07-10T03:32:35;7.60;;;3.90;;
71464;SDS011;59274;49.874;9.154;2022-07-10T03:35:01;11.33;;;4.07;;
71464;SDS011;59274;49.874;9.154;2022-07-10T03:37:27;8.45;;;3.78;;
71464;SDS011;59274;49.874;9.154;2022-07-10T03:39:53;6.60;;;3.97;;
71464;SDS011;59274;49.874;9.154;2022-07-10T03:42:19;7.60;;;3.70;;
71464;SDS011;59274;49.874;9.154;2022-07-10T03:44:44;11.53;;;4.17;;
71464;SDS011;59274;49.874;9.154;2022-07-10T03:47:10;10.77;;;4.20;;
71464;SDS011;59274;49.874;9.154;2022-07-10T03:49:36;8.40;;;4.47;;
71464;SDS011;59274;49.874;9.154;2022-07-10T03:52:04;8.23;;;3.35;;
71464;SDS011;59274;49.874;9.154;2022-07-10T03:54:31;7.70;;;3.58;;
71464;SDS011;59274;49.874;9.154;2022-07-10T03:56:57;9.40;;;3.60;;
71464;SDS011;59274;49.874;9.154;2022-07-10T03:59:42;11.32;;;3.88;;
71464;SDS011;59274;49.874;9.154;2022-07-10T04:02:08;9.27;;;4.10;;
71464;SDS011;59274;49.874;9.154;2022-07-10T04:04:33;10.13;;;3.90;;
71464;SDS011;59274;49.874;9.154;2022-07-10T04:06:59;9.05;;;3.67;;
71464;SDS011;59274;49.874;9.154;2022-07-10T04:09:25;8.33;;;4.17;;
71464;SDS011;59274;49.874;9.154;2022-07-10T04:11:50;8.27;;;3.70;;
71464;SDS011;59274;49.874;9.154;2022-07-10T04:14:16;8.03;;;3.73;;
71464;SDS011;59274;49.874;9.154;2022-07-10T04:16:42;11.10;;;3.80;;
71464;SDS011;59274;49.874;9.154;2022-07-10T04:19:07;8.60;;;3.60;;
71464;SDS011;59274;49.874;9.154;2022-07-10T04:21:33;5.53;;;3.07;;
71464;SDS011;59274;49.874;9.154;2022-07-10T04:23:59;7.05;;;3.28;;
71464;SDS011;59274;49.874;9.154;2022-07-10T04:26:24;4.80;;;2.77;;
71464;SDS011;59274;49.874;9.154;2022-07-10T04:28:50;5.20;;;2.90;;
71464;SDS011;59274;49.874;9.154;2022-07-10T04:31:16;5.63;;;2.00;;
71464;SDS011;59274;49.874;9.154;2022-07-10T04:33:41;8.10;;;1.97;;
71464;SDS011;59274;49.874;9.154;2022-07-10T04:36:07;6.15;;;1.85;;
71464;SDS011;59274;49.874;9.154;2022-07-10T04:38:32;4.23;;;1.70;;
71464;SDS011;59274;49.874;9.154;2022-07-10T04:40:59;5.78;;;1.90;;
71464;SDS011;59274;49.874;9.154;2022-07-10T04:43:24;5.72;;;1.73;;
71464;SDS011;59274;49.874;9.154;2022-07-10T04:45:50;8.13;;;2.20;;
71464;SDS011;59274;49.874;9.154;2022-07-10T04:48:16;5.20;;;1.70;;
71464;SDS011;59274;49.874;9.154;2022-07-10T04:50:42;4.13;;;1.50;;
71464;SDS011;59274;49.874;9.154;2022-07-10T04:53:08;5.53;;;1.80;;
71464;SDS011;59274;49.874;9.154;2022-07-10T04:55:33;7.15;;;2.15;;
71464;SDS011;59274;49.874;9.154;2022-07-10T04:57:59;5.57;;;1.70;;
71464;SDS011;59274;49.874;9.154;2022-07-10T05:00:25;4.90;;;1.80;;
71464;SDS011;59274;49.874;9.154;2022-07-10T05:02:50;5.70;;;1.70;;
71464;SDS011;59274;49.874;9.154;2022-07-10T05:05:16;4.63;;;1.73;;
71464;SDS011;59274;49.874;9.154;2022-07-10T05:07:42;5.55;;;1.65;;
71464;SDS011;59274;49.874;9.154;2022-07-10T05:10:08;6.33;;;1.80;;
71464;SDS011;59274;49.874;9.154;2022-07-10T05:12:34;6.38;;;1.42;;
71464;SDS011;59274;49.874;9.154;2022-07-10T05:14:59;6.57;;;1.60;;
71464;SDS011;59274;49.874;9.154;2022-07-10T05:17:26;3.30;;;1.47;;
71464;SDS011;59274;49.874;9.154;2022-07-10T05:19:56;4.65;;;1.58;;
71464;SDS011;59274;49.874;9.154;2022-07-10T05:22:22;8.35;;;1.60;;
71464;SDS011;59274;49.874;9.154;2022-07-10T05:24:52;5.20;;;1.60;;
71464;SDS011;59274;49.874;9.154;2022-07-10T05:27:18;6.72;;;1.58;;
71464;SDS011;59274;49.874;9.154;2022-07-10T05:29:45;6.00;;;2.00;;
71464;SDS011;59274;49.874;9.154;2022-07-10T05:32:11;6.22;;;1.63;;
71464;SDS011;59274;49.874;9.154;2022-07-10T05:34:38;6.93;;;1.70;;
71464;SDS011;59274;49.874;9.154;2022-07-10T05:37:04;4.87;;;1.40;;
71464;SDS011;59274;49.874;9.154;2022-07-10T05:39:30;6.40;;;1.75;;
71464;SDS011;59274;49.874;9.154;2022-07-10T05:41:56;5.00;;;1.47;;
71464;SDS011;59274;49.874;9.154;2022-07-10T05:44:23;3.35;;;1.60;;
71464;SDS011;59274;49.874;9.154;2022-07-10T05:46:49;5.63;;;1.55;;
71464;SDS011;59274;49.874;9.154;2022-07-10T05:49:15;3.63;;;1.30;;
71464;SDS011;59274;49.874;9.154;2022-07-10T05:51:41;4.72;;;1.35;;
71464;SDS011;59274;49.874;9.154;2022-07-10T05:54:06;4.43;;;1.40;;
71464;SDS011;59274;49.874;9.154;2022-07-10T05:56:33;3.53;;;1.20;;
71464;SDS011;59274;49.874;9.154;2022-07-10T05:58:59;7.30;;;1.65;;
71464;SDS011;59274;49.874;9.154;2022-07-10T06:01:25;5.50;;;1.30;;
71464;SDS011;59274;49.874;9.154;2022-07-10T06:03:54;4.72;;;1.30;;
71464;SDS011;59274;49.874;9.154;2022-07-10T06:06:19;4.90;;;1.40;;
71464;SDS011;59274;49.874;9.154;2022-07-10T06:08:45;3.72;;;1.30;;
71464;SDS011;59274;49.874;9.154;2022-07-10T06:11:11;5.60;;;1.58;;
71464;SDS011;59274;49.874;9.154;2022-07-10T06:13:37;4.03;;;1.20;;
71464;SDS011;59274;49.874;9.154;2022-07-10T06:16:03;3.65;;;1.08;;
71464;SDS011;59274;49.874;9.154;2022-07-10T06:18:30;4.50;;;1.45;;
71464;SDS011;59274;49.874;9.154;2022-07-10T06:20:56;4.55;;;1.30;;
71464;SDS011;59274;49.874;9.154;2022-07-10T06:23:22;3.70;;;1.30;;
71464;SDS011;59274;49.874;9.154;2022-07-10T06:25:47;6.07;;;1.42;;
71464;SDS011;59274;49.874;9.154;2022-07-10T06:28:16;3.80;;;1.37;;
71464;SDS011;59274;49.874;9.154;2022-07-10T06:30:42;3.58;;;1.05;;
71464;SDS011;59274;49.874;9.154;2022-07-10T06:33:08;3.92;;;1.23;;
71464;SDS011;59274;49.874;9.154;2022-07-10T06:35:34;5.17;;;1.40;;
71464;SDS011;59274;49.874;9.154;2022-07-10T06:38:00;3.95;;;1.30;;
71464;SDS011;59274;49.874;9.154;2022-07-10T06:40:26;4.22;;;1.70;;
71464;SDS011;59274;49.874;9.154;2022-07-10T06:43:00;6.70;;;1.40;;
71464;SDS011;59274;49.874;9.154;2022-07-10T06:45:26;5.90;;;1.40;;
71464;SDS011;59274;49.874;9.154;2022-07-10T06:47:52;3.80;;;0.93;;
71464;SDS011;59274;49.874;9.154;2022-07-10T06:50:21;3.50;;;1.50;;
71464;SDS011;59274;49.874;9.154;2022-07-10T06:52:48;4.90;;;1.15;;
71464;SDS011;59274;49.874;9.154;2022-07-10T06:55:14;4.07;;;1.20;;
71464;SDS011;59274;49.874;9.154;2022-07-10T06:57:41;3.10;;;1.15;;
71464;SDS011;59274;49.874;9.154;2022-07-10T07:00:07;3.57;;;1.00;;
71464;SDS011;59274;49.874;9.154;2022-07-10T07:02:34;4.45;;;1.20;;
71464;SDS011;59274;49.874;9.154;2022-07-10T07:05:00;2.40;;;1.00;;
71464;SDS011;59274;49.874;9.154;2022-07-10T07:07:25;2.13;;;1.00;;
71464;SDS011;59274;49.874;9.154;2022-07-10T07:09:54;4.00;;;1.30;;
71464;SDS011;59274;49.874;9.154;2022-07-10T07:12:19;3.27;;;1.00;;
71464;SDS011;59274;49.874;9.154;2022-07-10T07:14:45;4.00;;;1.03;;
71464;SDS011;59274;49.874;9.154;2022-07-10T07:17:12;2.75;;;0.98;;
71464;SDS011;59274;49.874;9.154;2022-07-10T07:19:39;2.10;;;0.85;;
71464;SDS011;59274;49.874;9.154;2022-07-10T07:22:24;4.70;;;1.00;;
71464;SDS011;59274;49.874;9.154;2022-07-10T07:25:09;5.75;;;1.08;;
71464;SDS011;59274;49.874;9.154;2022-07-10T07:27:36;1.05;;;0.80;;
71464;SDS011;59274;49.874;9.154;2022-07-10T07:30:06;3.35;;;0.90;;
71464;SDS011;59274;49.874;9.154;2022-07-10T07:32:36;3.70;;;0.90;;
71464;SDS011;59274;49.874;9.154;2022-07-10T07:35:03;4.75;;;0.95;;
71464;SDS011;59274;49.874;9.154;2022-07-10T07:40:01;2.65;;;0.70;;
71464;SDS011;59274;49.874;9.154;2022-07-10T07:42:27;3.58;;;0.90;;
71464;SDS011;59274;49.874;9.154;2022-07-10T07:44:52;4.00;;;0.85;;
71464;SDS011;59274;49.874;9.154;2022-07-10T07:47:17;2.92;;;0.95;;
71464;SDS011;59274;49.874;9.154;2022-07-10T07:49:43;4.03;;;1.00;;
71464;SDS011;59274;49.874;9.154;2022-07-10T07:52:08;2.77;;;0.90;;
71464;SDS011;59274;49.874;9.154;2022-07-10T07:54:37;2.73;;;0.87;;
71464;SDS011;59274;49.874;9.154;2022-07-10T07:57:02;4.05;;;0.98;;
71464;SDS011;59274;49.874;9.154;2022-07-10T07:59:28;4.05;;;0.93;;
71464;SDS011;59274;49.874;9.154;2022-07-10T08:01:56;2.83;;;0.70;;
71464;SDS011;59274;49.874;9.154;2022-07-10T08:04:22;3.03;;;0.70;;
71464;SDS011;59274;49.874;9.154;2022-07-10T08:06:47;1.90;;;0.73;;
71464;SDS011;59274;49.874;9.154;2022-07-10T08:09:17;3.47;;;0.90;;
71464;SDS011;59274;49.874;9.154;2022-07-10T08:11:46;1.63;;;0.80;;
71464;SDS011;59274;49.874;9.154;2022-07-10T08:14:12;5.55;;;0.70;;
71464;SDS011;59274;49.874;9.154;2022-07-10T08:16:38;1.63;;;0.75;;
71464;SDS011;59274;49.874;9.154;2022-07-10T08:19:04;3.50;;;0.82;;
71464;SDS011;59274;49.874;9.154;2022-07-10T08:21:30;2.97;;;0.77;;
71464;SDS011;59274;49.874;9.154;2022-07-10T08:23:56;1.55;;;0.80;;
71464;SDS011;59274;49.874;9.154;2022-07-10T08:26:22;4.90;;;1.07;;
71464;SDS011;59274;49.874;9.154;2022-07-10T08:28:48;4.03;;;1.00;;
71464;SDS011;59274;49.874;9.154;2022-07-10T08:31:13;2.17;;;0.80;;
71464;SDS011;59274;49.874;9.154;2022-07-10T08:33:39;3.00;;;0.70;;
71464;SDS011;59274;49.874;9.154;2022-07-10T08:36:04;3.33;;;0.80;;
71464;SDS011;59274;49.874;9.154;2022-07-10T08:38:30;3.40;;;1.00;;
71464;SDS011;59274;49.874;9.154;2022-07-10T08:40:56;4.15;;;1.02;;
71464;SDS011;59274;49.874;9.154;2022-07-10T08:43:24;2.72;;;0.73;;
71464;SDS011;59274;49.874;9.154;2022-07-10T08:45:50;2.15;;;0.80;;
71464;SDS011;59274;49.874;9.154;2022-07-10T08:48:23;3.75;;;0.90;;
71464;SDS011;59274;49.874;9.154;2022-07-10T08:50:52;3.60;;;0.90;;
71464;SDS011;59274;49.874;9.154;2022-07-10T08:53:29;4.17;;;0.97;;
71464;SDS011;59274;49.874;9.154;2022-07-10T08:55:56;3.88;;;0.80;;
71464;SDS011;59274;49.874;9.154;2022-07-10T08:58:23;2.67;;;0.93;;
71464;SDS011;59274;49.874;9.154;2022-07-10T09:00:49;1.70;;;0.63;;
71464;SDS011;59274;49.874;9.154;2022-07-10T09:03:15;2.20;;;0.73;;
71464;SDS011;59274;49.874;9.154;2022-07-10T09:05:40;3.75;;;1.00;;
71464;SDS011;59274;49.874;9.154;2022-07-10T09:08:25;3.83;;;0.90;;
71464;SDS011;59274;49.874;9.154;2022-07-10T09:11:02;5.22;;;1.00;;
71464;SDS011;59274;49.874;9.154;2022-07-10T09:13:58;2.20;;;0.70;;
71464;SDS011;59274;49.874;9.154;2022-07-10T09:16:32;2.33;;;0.70;;
71464;SDS011;59274;49.874;9.154;2022-07-10T09:21:46;2.70;;;0.73;;
71464;SDS011;59274;49.874;9.154;2022-07-10T09:24:13;2.42;;;0.70;;
71464;SDS011;59274;49.874;9.154;2022-07-10T09:26:39;2.38;;;0.70;;
71464;SDS011;59274;49.874;9.154;2022-07-10T09:31:48;1.67;;;0.90;;
71464;SDS011;59274;49.874;9.154;2022-07-10T09:34:36;1.93;;;0.80;;
71464;SDS011;59274;49.874;9.154;2022-07-10T09:37:22;3.03;;;0.93;;
71464;SDS011;59274;49.874;9.154;2022-07-10T09:42:31;5.22;;;0.95;;
71464;SDS011;59274;49.874;9.154;2022-07-10T09:45:16;2.28;;;0.93;;
71464;SDS011;59274;49.874;9.154;2022-07-10T09:47:55;1.70;;;0.73;;
71464;SDS011;59274;49.874;9.154;2022-07-10T09:55:29;2.83;;;0.90;;
71464;SDS011;59274;49.874;9.154;2022-07-10T09:57:57;3.65;;;0.98;;
71464;SDS011;59274;49.874;9.154;2022-07-10T10:00:31;1.80;;;0.87;;
71464;SDS011;59274;49.874;9.154;2022-07-10T10:02:59;2.72;;;0.90;;
71464;SDS011;59274;49.874;9.154;2022-07-10T10:11:21;3.90;;;1.20;;
71464;SDS011;59274;49.874;9.154;2022-07-10T10:13:50;2.37;;;0.80;;
71464;SDS011;59274;49.874;9.154;2022-07-10T10:16:18;2.17;;;0.68;;
71464;SDS011;59274;49.874;9.154;2022-07-10T10:18:44;2.70;;;0.80;;
71464;SDS011;59274;49.874;9.154;2022-07-10T10:21:30;2.78;;;0.80;;
71464;SDS011;59274;49.874;9.154;2022-07-10T10:23:57;3.38;;;1.00;;
71464;SDS011;59274;49.874;9.154;2022-07-10T10:26:24;2.77;;;0.90;;
71464;SDS011;59274;49.874;9.154;2022-07-10T10:28:52;4.95;;;1.33;;
71464;SDS011;59274;49.874;9.154;2022-07-10T10:31:21;3.45;;;0.90;;
71464;SDS011;59274;49.874;9.154;2022-07-10T10:33:48;1.23;;;0.82;;
71464;SDS011;59274;49.874;9.154;2022-07-10T10:39:09;2.78;;;0.90;;
71464;SDS011;59274;49.874;9.154;2022-07-10T10:41:42;2.90;;;0.95;;
71464;SDS011;59274;49.874;9.154;2022-07-10T10:44:22;2.50;;;0.90;;
71464;SDS011;59274;49.874;9.154;2022-07-10T10:47:02;2.20;;;0.90;;
71464;SDS011;59274;49.874;9.154;2022-07-10T10:49:47;1.98;;;0.80;;
71464;SDS011;59274;49.874;9.154;2022-07-10T10:52:22;1.80;;;1.08;;
71464;SDS011;59274;49.874;9.154;2022-07-10T10:59:58;3.92;;;0.93;;
71464;SDS011;59274;49.874;9.154;2022-07-10T11:02:25;4.60;;;0.80;;
71464;SDS011;59274;49.874;9.154;2022-07-10T11:04:51;3.57;;;0.90;;
71464;SDS011;59274;49.874;9.154;2022-07-10T11:13:13;5.47;;;0.90;;
71464;SDS011;59274;49.874;9.154;2022-07-10T11:15:40;2.60;;;0.90;;
71464;SDS011;59274;49.874;9.154;2022-07-10T11:18:25;4.00;;;1.00;;
71464;SDS011;59274;49.874;9.154;2022-07-10T11:20:53;4.18;;;0.95;;
71464;SDS011;59274;49.874;9.154;2022-07-10T11:26:04;4.80;;;1.02;;
71464;SDS011;59274;49.874;9.154;2022-07-10T11:31:18;3.10;;;1.13;;
71464;SDS011;59274;49.874;9.154;2022-07-10T11:33:46;2.30;;;1.20;;
71464;SDS011;59274;49.874;9.154;2022-07-10T11:36:15;3.05;;;1.30;;
71464;SDS011;59274;49.874;9.154;2022-07-10T11:38:42;2.80;;;1.00;;
71464;SDS011;59274;49.874;9.154;2022-07-10T11:41:13;3.75;;;1.20;;
71464;SDS011;59274;49.874;9.154;2022-07-10T11:43:46;2.70;;;1.20;;
71464;SDS011;59274;49.874;9.154;2022-07-10T11:46:20;3.50;;;1.15;;
71464;SDS011;59274;49.874;9.154;2022-07-10T11:48:47;3.22;;;1.23;;
71464;SDS011;59274;49.874;9.154;2022-07-10T11:51:19;5.07;;;1.30;;
71464;SDS011;59274;49.874;9.154;2022-07-10T11:54:03;3.95;;;1.70;;
71464;SDS011;59274;49.874;9.154;2022-07-10T11:56:34;2.13;;;0.80;;
71464;SDS011;59274;49.874;9.154;2022-07-10T11:59:02;4.40;;;1.20;;
71464;SDS011;59274;49.874;9.154;2022-07-10T12:01:29;5.90;;;1.70;;
71464;SDS011;59274;49.874;9.154;2022-07-10T12:04:02;4.97;;;1.50;;
71464;SDS011;59274;49.874;9.154;2022-07-10T12:06:30;4.38;;;1.50;;
71464;SDS011;59274;49.874;9.154;2022-07-10T12:11:30;4.40;;;1.33;;
71464;SDS011;59274;49.874;9.154;2022-07-10T12:14:08;2.97;;;1.30;;
71464;SDS011;59274;49.874;9.154;2022-07-10T12:16:37;2.97;;;1.42;;
71464;SDS011;59274;49.874;9.154;2022-07-10T12:19:03;3.08;;;1.23;;
71464;SDS011;59274;49.874;9.154;2022-07-10T12:21:31;2.75;;;1.40;;
71464;SDS011;59274;49.874;9.154;2022-07-10T12:23:57;4.68;;;1.60;;
71464;SDS011;59274;49.874;9.154;2022-07-10T12:26:30;5.75;;;1.40;;
71464;SDS011;59274;49.874;9.154;2022-07-10T12:29:00;3.63;;;1.40;;
71464;SDS011;59274;49.874;9.154;2022-07-10T12:31:33;5.45;;;2.00;;
71464;SDS011;59274;49.874;9.154;2022-07-10T12:34:01;2.78;;;1.20;;
71464;SDS011;59274;49.874;9.154;2022-07-10T12:36:41;3.55;;;1.50;;
71464;SDS011;59274;49.874;9.154;2022-07-10T12:39:10;6.88;;;1.75;;
71464;SDS011;59274;49.874;9.154;2022-07-10T12:44:37;4.22;;;1.33;;
71464;SDS011;59274;49.874;9.154;2022-07-10T12:49:50;5.78;;;1.30;;
71464;SDS011;59274;49.874;9.154;2022-07-10T12:52:47;3.30;;;1.40;;
71464;SDS011;59274;49.874;9.154;2022-07-10T13:00:34;3.70;;;1.70;;
71464;SDS011;59274;49.874;9.154;2022-07-10T13:03:02;4.15;;;1.58;;
71464;SDS011;59274;49.874;9.154;2022-07-10T13:05:30;4.75;;;1.40;;
71464;SDS011;59274;49.874;9.154;2022-07-10T13:10:49;4.07;;;1.60;;
71464;SDS011;59274;49.874;9.154;2022-07-10T13:13:16;2.78;;;1.30;;
71464;SDS011;59274;49.874;9.154;2022-07-10T13:15:44;5.10;;;2.38;;
71464;SDS011;59274;49.874;9.154;2022-07-10T13:18:14;3.85;;;1.40;;
71464;SDS011;59274;49.874;9.154;2022-07-10T13:20:43;4.22;;;1.30;;
71464;SDS011;59274;49.874;9.154;2022-07-10T13:23:09;6.28;;;1.80;;
71464;SDS011;59274;49.874;9.154;2022-07-10T13:25:36;6.18;;;1.83;;
71464;SDS011;59274;49.874;9.154;2022-07-10T13:28:03;6.75;;;1.55;;
71464;SDS011;59274;49.874;9.154;2022-07-10T13:30:29;5.53;;;1.85;;
71464;SDS011;59274;49.874;9.154;2022-07-10T13:32:54;3.67;;;1.30;;
71464;SDS011;59274;49.874;9.154;2022-07-10T13:35:20;4.33;;;1.53;;
71464;SDS011;59274;49.874;9.154;2022-07-10T13:37:45;4.03;;;1.40;;
71464;SDS011;59274;49.874;9.154;2022-07-10T13:40:12;4.38;;;1.40;;
71464;SDS011;59274;49.874;9.154;2022-07-10T13:42:37;5.60;;;1.67;;
71464;SDS011;59274;49.874;9.154;2022-07-10T13:45:03;6.70;;;1.60;;
71464;SDS011;59274;49.874;9.154;2022-07-10T13:47:29;6.28;;;1.65;;
71464;SDS011;59274;49.874;9.154;2022-07-10T13:49:54;3.53;;;1.40;;
71464;SDS011;59274;49.874;9.154;2022-07-10T13:52:20;4.07;;;1.53;;
71464;SDS011;59274;49.874;9.154;2022-07-10T13:54:45;4.00;;;1.42;;
71464;SDS011;59274;49.874;9.154;2022-07-10T13:57:11;5.13;;;1.33;;
71464;SDS011;59274;49.874;9.154;2022-07-10T13:59:37;3.67;;;1.50;;
71464;SDS011;59274;49.874;9.154;2022-07-10T14:02:02;6.65;;;1.50;;
71464;SDS011;59274;49.874;9.154;2022-07-10T14:04:28;4.88;;;1.48;;
71464;SDS011;59274;49.874;9.154;2022-07-10T14:06:54;3.87;;;1.37;;
71464;SDS011;59274;49.874;9.154;2022-07-10T14:09:20;4.10;;;1.08;;
71464;SDS011;59274;49.874;9.154;2022-07-10T14:11:47;5.25;;;1.40;;
71464;SDS011;59274;49.874;9.154;2022-07-10T14:14:13;5.85;;;1.48;;
71464;SDS011;59274;49.874;9.154;2022-07-10T14:16:38;4.10;;;1.40;;
71464;SDS011;59274;49.874;9.154;2022-07-10T14:19:04;4.53;;;1.60;;
71464;SDS011;59274;49.874;9.154;2022-07-10T14:21:30;3.42;;;1.50;;
71464;SDS011;59274;49.874;9.154;2022-07-10T14:23:55;6.17;;;1.40;;
71464;SDS011;59274;49.874;9.154;2022-07-10T14:26:23;5.15;;;1.60;;
71464;SDS011;59274;49.874;9.154;2022-07-10T14:28:49;4.70;;;1.57;;
71464;SDS011;59274;49.874;9.154;2022-07-10T14:31:16;5.22;;;1.60;;
71464;SDS011;59274;49.874;9.154;2022-07-10T14:33:41;6.93;;;1.47;;
71464;SDS011;59274;49.874;9.154;2022-07-10T14:36:07;5.30;;;1.37;;
71464;SDS011;59274;49.874;9.154;2022-07-10T14:38:32;4.60;;;1.30;;
71464;SDS011;59274;49.874;9.154;2022-07-10T14:40:58;5.67;;;1.50;;
71464;SDS011;59274;49.874;9.154;2022-07-10T14:43:24;5.18;;;1.55;;
71464;SDS011;59274;49.874;9.154;2022-07-10T14:45:50;4.32;;;1.30;;
71464;SDS011;59274;49.874;9.154;2022-07-10T14:48:16;4.13;;;1.80;;
71464;SDS011;59274;49.874;9.154;2022-07-10T14:50:42;6.75;;;1.25;;
71464;SDS011;59274;49.874;9.154;2022-07-10T14:53:07;7.63;;;1.40;;
71464;SDS011;59274;49.874;9.154;2022-07-10T14:55:34;5.50;;;1.48;;
71464;SDS011;59274;49.874;9.154;2022-07-10T14:58:00;5.47;;;1.23;;
71464;SDS011;59274;49.874;9.154;2022-07-10T15:00:25;4.03;;;1.13;;
71464;SDS011;59274;49.874;9.154;2022-07-10T15:02:51;3.38;;;1.17;;
71464;SDS011;59274;49.874;9.154;2022-07-10T15:05:16;2.87;;;0.97;;
71464;SDS011;59274;49.874;9.154;2022-07-10T15:07:42;4.33;;;1.13;;
71464;SDS011;59274;49.874;9.154;2022-07-10T15:10:08;3.27;;;0.97;;
71464;SDS011;59274;49.874;9.154;2022-07-10T15:12:34;2.90;;;0.90;;
71464;SDS011;59274;49.874;9.154;2022-07-10T15:15:02;3.17;;;1.00;;
71464;SDS011;59274;49.874;9.154;2022-07-10T15:17:28;4.60;;;1.40;;
71464;SDS011;59274;49.874;9.154;2022-07-10T15:19:54;5.13;;;1.43;;
71464;SDS011;59274;49.874;9.154;2022-07-10T15:22:20;3.35;;;1.45;;
71464;SDS011;59274;49.874;9.154;2022-07-10T15:24:45;2.63;;;1.30;;
71464;SDS011;59274;49.874;9.154;2022-07-10T15:27:14;3.53;;;1.30;;
71464;SDS011;59274;49.874;9.154;2022-07-10T15:29:39;5.30;;;1.30;;
71464;SDS011;59274;49.874;9.154;2022-07-10T15:32:05;3.50;;;1.27;;
71464;SDS011;59274;49.874;9.154;2022-07-10T15:34:31;4.07;;;1.33;;
71464;SDS011;59274;49.874;9.154;2022-07-10T15:36:56;6.72;;;1.52;;
71464;SDS011;59274;49.874;9.154;2022-07-10T15:39:22;3.03;;;1.03;;
71464;SDS011;59274;49.874;9.154;2022-07-10T15:41:49;4.70;;;1.27;;
71464;SDS011;59274;49.874;9.154;2022-07-10T15:44:14;4.17;;;1.33;;
71464;SDS011;59274;49.874;9.154;2022-07-10T15:46:40;4.78;;;1.48;;
71464;SDS011;59274;49.874;9.154;2022-07-10T15:49:06;5.38;;;1.02;;